sensor_id;sensor_type;location;lat;lon;timestamp;temperature;humidity
45849;DHT22;31567;54.600;9.842;2023-07-02T00:02:41;18.10;99.90
45849;DHT22;31567;54.600;9.842;2023-07-02T00:06:20;18.00;99.90
45849;DHT22;31567;54.600;9.842;2023-07-02T00:10:00;18.00;99.90
45849;DHT22;31567;54.600;9.842;2023-07-02T00:13:39;17.90;99.90
45849;DHT22;31567;54.600;9.842;2023-07-02T00:17:19;17.90;99.90
45849;DHT22;31567;54.600;9.842;2023-07-02T00:21:02;17.80;99.90
45849;DHT22;31567;54.600;9.842;2023-07-02T00:24:44;17.80;99.90
45849;DHT22;31567;54.600;9.842;2023-07-02T00:28:24;17.70;99.90
45849;DHT22;31567;54.600;9.842;2023-07-02T00:32:04;17.70;99.90
45849;DHT22;31567;54.600;9.842;2023-07-02T00:35:43;17.70;99.90
45849;DHT22;31567;54.600;9.842;2023-07-02T00:39:23;17.70;99.90
45849;DHT22;31567;54.600;9.842;2023-07-02T00:43:02;17.70;99.90
45849;DHT22;31567;54.600;9.842;2023-07-02T00:46:42;17.60;99.90
45849;DHT22;31567;54.600;9.842;2023-07-02T00:50:22;17.60;99.90
45849;DHT22;31567;54.600;9.842;2023-07-02T00:54:02;17.60;99.90
45849;DHT22;31567;54.600;9.842;2023-07-02T00:57:42;17.60;99.90
45849;DHT22;31567;54.600;9.842;2023-07-02T01:01:27;17.60;99.90
45849;DHT22;31567;54.600;9.842;2023-07-02T01:05:15;17.50;99.90
45849;DHT22;31567;54.600;9.842;2023-07-02T01:09:02;17.40;99.90
45849;DHT22;31567;54.600;9.842;2023-07-02T01:12:43;17.40;99.90
45849;DHT22;31567;54.600;9.842;2023-07-02T01:16:24;17.40;99.90
45849;DHT22;31567;54.600;9.842;2023-07-02T01:20:05;17.30;99.90
45849;DHT22;31567;54.600;9.842;2023-07-02T01:23:47;17.20;99.90
45849;DHT22;31567;54.600;9.842;2023-07-02T01:27:30;17.10;99.90
45849;DHT22;31567;54.600;9.842;2023-07-02T01:31:10;17.10;99.90
45849;DHT22;31567;54.600;9.842;2023-07-02T01:34:49;17.10;99.90
45849;DHT22;31567;54.600;9.842;2023-07-02T01:38:32;17.00;99.90
45849;DHT22;31567;54.600;9.842;2023-07-02T01:42:17;17.00;99.90
45849;DHT22;31567;54.600;9.842;2023-07-02T01:45:57;16.90;99.90
45849;DHT22;31567;54.600;9.842;2023-07-02T01:49:36;16.90;99.90
45849;DHT22;31567;54.600;9.842;2023-07-02T01:53:16;17.00;99.90
45849;DHT22;31567;54.600;9.842;2023-07-02T01:56:56;16.90;99.90
45849;DHT22;31567;54.600;9.842;2023-07-02T02:00:36;16.80;99.90
45849;DHT22;31567;54.600;9.842;2023-07-02T02:04:16;16.70;99.90
45849;DHT22;31567;54.600;9.842;2023-07-02T02:07:56;16.60;99.90
45849;DHT22;31567;54.600;9.842;2023-07-02T02:11:39;16.60;99.90
45849;DHT22;31567;54.600;9.842;2023-07-02T02:15:19;16.60;99.80
45849;DHT22;31567;54.600;9.842;2023-07-02T02:18:58;16.60;99.90
45849;DHT22;31567;54.600;9.842;2023-07-02T02:22:38;16.50;99.90
45849;DHT22;31567;54.600;9.842;2023-07-02T02:26:17;16.50;99.90
45849;DHT22;31567;54.600;9.842;2023-07-02T02:29:57;16.40;99.90
45849;DHT22;31567;54.600;9.842;2023-07-02T02:33:37;16.40;99.90
45849;DHT22;31567;54.600;9.842;2023-07-02T02:37:18;16.50;99.90
45849;DHT22;31567;54.600;9.842;2023-07-02T02:40:58;16.40;99.90
45849;DHT22;31567;54.600;9.842;2023-07-02T02:44:38;16.40;99.90
45849;DHT22;31567;54.600;9.842;2023-07-02T02:48:17;16.30;99.90
45849;DHT22;31567;54.600;9.842;2023-07-02T02:51:57;16.40;99.90
45849;DHT22;31567;54.600;9.842;2023-07-02T02:55:37;16.40;99.90
45849;DHT22;31567;54.600;9.842;2023-07-02T02:59:17;16.40;99.90
45849;DHT22;31567;54.600;9.842;2023-07-02T03:02:56;16.40;99.90
45849;DHT22;31567;54.600;9.842;2023-07-02T03:06:36;16.40;99.90
45849;DHT22;31567;54.600;9.842;2023-07-02T03:10:15;16.30;99.90
45849;DHT22;31567;54.600;9.842;2023-07-02T03:13:55;16.40;99.70
45849;DHT22;31567;54.600;9.842;2023-07-02T03:17:34;16.10;98.70
45849;DHT22;31567;54.600;9.842;2023-07-02T03:21:14;16.20;98.60
45849;DHT22;31567;54.600;9.842;2023-07-02T03:24:53;16.20;98.40
45849;DHT22;31567;54.600;9.842;2023-07-02T03:28:33;16.20;98.10
45849;DHT22;31567;54.600;9.842;2023-07-02T03:32:14;16.10;98.00
45849;DHT22;31567;54.600;9.842;2023-07-02T03:35:53;16.10;98.00
45849;DHT22;31567;54.600;9.842;2023-07-02T03:39:33;16.20;98.10
45849;DHT22;31567;54.600;9.842;2023-07-02T03:43:13;16.10;98.10
45849;DHT22;31567;54.600;9.842;2023-07-02T03:46:54;16.10;98.20
45849;DHT22;31567;54.600;9.842;2023-07-02T03:50:33;16.20;98.40
45849;DHT22;31567;54.600;9.842;2023-07-02T03:54:13;16.10;98.50
45849;DHT22;31567;54.600;9.842;2023-07-02T03:57:52;16.20;98.70
45849;DHT22;31567;54.600;9.842;2023-07-02T04:01:32;16.30;98.90
45849;DHT22;31567;54.600;9.842;2023-07-02T04:05:11;16.30;99.10
45849;DHT22;31567;54.600;9.842;2023-07-02T04:08:51;16.30;99.30
45849;DHT22;31567;54.600;9.842;2023-07-02T04:12:30;16.20;99.70
45849;DHT22;31567;54.600;9.842;2023-07-02T04:16:10;15.90;99.90
45849;DHT22;31567;54.600;9.842;2023-07-02T04:19:49;15.70;99.90
45849;DHT22;31567;54.600;9.842;2023-07-02T04:23:29;15.50;99.90
45849;DHT22;31567;54.600;9.842;2023-07-02T04:27:09;15.30;99.90
45849;DHT22;31567;54.600;9.842;2023-07-02T04:30:48;15.20;99.90
45849;DHT22;31567;54.600;9.842;2023-07-02T04:34:29;15.20;99.90
45849;DHT22;31567;54.600;9.842;2023-07-02T04:38:09;15.20;99.90
45849;DHT22;31567;54.600;9.842;2023-07-02T04:41:48;15.10;99.90
45849;DHT22;31567;54.600;9.842;2023-07-02T04:45:33;15.10;99.90
45849;DHT22;31567;54.600;9.842;2023-07-02T04:49:15;15.20;99.90
45849;DHT22;31567;54.600;9.842;2023-07-02T04:52:55;15.20;99.90
45849;DHT22;31567;54.600;9.842;2023-07-02T04:56:35;15.10;99.90
45849;DHT22;31567;54.600;9.842;2023-07-02T05:00:14;15.20;99.90
45849;DHT22;31567;54.600;9.842;2023-07-02T05:03:54;15.20;99.90
45849;DHT22;31567;54.600;9.842;2023-07-02T05:07:34;15.20;99.90
45849;DHT22;31567;54.600;9.842;2023-07-02T05:11:13;15.30;99.90
45849;DHT22;31567;54.600;9.842;2023-07-02T05:14:53;15.30;99.90
45849;DHT22;31567;54.600;9.842;2023-07-02T05:18:32;15.30;99.90
45849;DHT22;31567;54.600;9.842;2023-07-02T05:22:12;15.50;99.90
45849;DHT22;31567;54.600;9.842;2023-07-02T05:25:52;15.60;99.90
45849;DHT22;31567;54.600;9.842;2023-07-02T05:29:31;15.70;99.90
45849;DHT22;31567;54.600;9.842;2023-07-02T05:33:11;15.70;99.90
45849;DHT22;31567;54.600;9.842;2023-07-02T05:36:50;15.70;99.90
45849;DHT22;31567;54.600;9.842;2023-07-02T05:40:30;15.70;99.90
45849;DHT22;31567;54.600;9.842;2023-07-02T05:44:10;15.70;99.90
45849;DHT22;31567;54.600;9.842;2023-07-02T05:47:49;15.80;99.90
45849;DHT22;31567;54.600;9.842;2023-07-02T05:51:29;15.80;99.90
45849;DHT22;31567;54.600;9.842;2023-07-02T05:55:09;15.80;99.90
45849;DHT22;31567;54.600;9.842;2023-07-02T05:58:49;15.90;99.90
45849;DHT22;31567;54.600;9.842;2023-07-02T06:02:29;16.00;99.90
45849;DHT22;31567;54.600;9.842;2023-07-02T06:06:09;16.00;99.90
45849;DHT22;31567;54.600;9.842;2023-07-02T06:09:48;16.10;99.90
45849;DHT22;31567;54.600;9.842;2023-07-02T06:13:28;16.10;99.90
45849;DHT22;31567;54.600;9.842;2023-07-02T06:17:07;16.10;99.90
45849;DHT22;31567;54.600;9.842;2023-07-02T06:20:47;16.00;99.90
45849;DHT22;31567;54.600;9.842;2023-07-02T06:24:27;15.90;99.90
45849;DHT22;31567;54.600;9.842;2023-07-02T06:28:06;15.90;99.90
45849;DHT22;31567;54.600;9.842;2023-07-02T06:31:46;16.00;99.90
45849;DHT22;31567;54.600;9.842;2023-07-02T06:35:25;16.00;99.90
45849;DHT22;31567;54.600;9.842;2023-07-02T06:39:05;16.00;99.90
45849;DHT22;31567;54.600;9.842;2023-07-02T06:42:44;16.20;99.90
45849;DHT22;31567;54.600;9.842;2023-07-02T06:46:24;16.30;99.90
45849;DHT22;31567;54.600;9.842;2023-07-02T06:50:04;16.40;99.90
45849;DHT22;31567;54.600;9.842;2023-07-02T06:53:45;16.50;99.90
45849;DHT22;31567;54.600;9.842;2023-07-02T06:57:24;16.50;99.90
45849;DHT22;31567;54.600;9.842;2023-07-02T07:01:04;16.70;99.90
45849;DHT22;31567;54.600;9.842;2023-07-02T07:04:43;16.90;99.90
45849;DHT22;31567;54.600;9.842;2023-07-02T07:08:23;17.00;99.90
45849;DHT22;31567;54.600;9.842;2023-07-02T07:12:03;17.20;99.90
45849;DHT22;31567;54.600;9.842;2023-07-02T07:15:43;17.40;99.90
45849;DHT22;31567;54.600;9.842;2023-07-02T07:19:23;17.40;99.30
45849;DHT22;31567;54.600;9.842;2023-07-02T07:23:03;17.20;98.10
45849;DHT22;31567;54.600;9.842;2023-07-02T07:26:42;17.10;97.80
45849;DHT22;31567;54.600;9.842;2023-07-02T07:30:22;17.00;97.90
45849;DHT22;31567;54.600;9.842;2023-07-02T07:34:02;17.00;98.20
45849;DHT22;31567;54.600;9.842;2023-07-02T07:37:41;17.20;98.40
45849;DHT22;31567;54.600;9.842;2023-07-02T07:41:21;17.30;98.50
45849;DHT22;31567;54.600;9.842;2023-07-02T07:45:01;17.50;98.30
45849;DHT22;31567;54.600;9.842;2023-07-02T07:48:42;17.70;98.40
45849;DHT22;31567;54.600;9.842;2023-07-02T07:52:21;17.90;98.30
45849;DHT22;31567;54.600;9.842;2023-07-02T07:56:01;18.00;98.20
45849;DHT22;31567;54.600;9.842;2023-07-02T07:59:40;17.90;97.40
45849;DHT22;31567;54.600;9.842;2023-07-02T08:03:20;18.10;97.00
45849;DHT22;31567;54.600;9.842;2023-07-02T08:06:59;17.80;97.20
45849;DHT22;31567;54.600;9.842;2023-07-02T08:10:39;17.40;97.70
45849;DHT22;31567;54.600;9.842;2023-07-02T08:14:18;17.10;98.20
45849;DHT22;31567;54.600;9.842;2023-07-02T08:17:58;17.10;98.90
45849;DHT22;31567;54.600;9.842;2023-07-02T08:21:38;17.20;99.30
45849;DHT22;31567;54.600;9.842;2023-07-02T08:25:18;17.20;98.70
45849;DHT22;31567;54.600;9.842;2023-07-02T08:28:57;17.40;98.60
45849;DHT22;31567;54.600;9.842;2023-07-02T08:32:37;17.60;98.30
45849;DHT22;31567;54.600;9.842;2023-07-02T08:36:16;17.80;98.20
45849;DHT22;31567;54.600;9.842;2023-07-02T08:39:56;17.80;97.40
45849;DHT22;31567;54.600;9.842;2023-07-02T08:43:36;17.90;97.70
45849;DHT22;31567;54.600;9.842;2023-07-02T08:47:15;17.90;97.10
45849;DHT22;31567;54.600;9.842;2023-07-02T08:50:56;17.80;96.90
45849;DHT22;31567;54.600;9.842;2023-07-02T08:54:35;17.50;97.30
45849;DHT22;31567;54.600;9.842;2023-07-02T08:58:15;17.60;98.50
45849;DHT22;31567;54.600;9.842;2023-07-02T09:01:54;17.80;98.60
45849;DHT22;31567;54.600;9.842;2023-07-02T09:05:34;17.90;98.00
45849;DHT22;31567;54.600;9.842;2023-07-02T09:09:14;18.10;97.40
45849;DHT22;31567;54.600;9.842;2023-07-02T09:13:04;18.10;96.90
45849;DHT22;31567;54.600;9.842;2023-07-02T09:16:44;17.90;95.70
45849;DHT22;31567;54.600;9.842;2023-07-02T09:20:32;17.60;95.20
45849;DHT22;31567;54.600;9.842;2023-07-02T09:24:19;17.80;95.50
45849;DHT22;31567;54.600;9.842;2023-07-02T09:27:59;18.00;95.50
45849;DHT22;31567;54.600;9.842;2023-07-02T09:31:46;18.20;95.70
45849;DHT22;31567;54.600;9.842;2023-07-02T09:35:25;18.20;95.00
45849;DHT22;31567;54.600;9.842;2023-07-02T09:39:05;18.30;94.80
45849;DHT22;31567;54.600;9.842;2023-07-02T09:42:45;18.50;94.80
45849;DHT22;31567;54.600;9.842;2023-07-02T09:46:31;18.70;94.30
45849;DHT22;31567;54.600;9.842;2023-07-02T09:50:12;18.60;92.30
45849;DHT22;31567;54.600;9.842;2023-07-02T09:53:53;18.60;91.80
45849;DHT22;31567;54.600;9.842;2023-07-02T09:57:33;18.50;90.10
45849;DHT22;31567;54.600;9.842;2023-07-02T10:01:13;18.60;91.50
45849;DHT22;31567;54.600;9.842;2023-07-02T10:04:52;18.70;92.40
45849;DHT22;31567;54.600;9.842;2023-07-02T10:08:34;18.90;93.00
45849;DHT22;31567;54.600;9.842;2023-07-02T10:12:18;19.00;92.70
45849;DHT22;31567;54.600;9.842;2023-07-02T10:16:05;19.10;92.70
45849;DHT22;31567;54.600;9.842;2023-07-02T10:19:51;19.20;91.60
45849;DHT22;31567;54.600;9.842;2023-07-02T10:23:35;18.90;92.40
45849;DHT22;31567;54.600;9.842;2023-07-02T10:27:14;18.90;91.90
45849;DHT22;31567;54.600;9.842;2023-07-02T10:30:54;19.00;91.00
45849;DHT22;31567;54.600;9.842;2023-07-02T10:34:35;19.30;91.10
45849;DHT22;31567;54.600;9.842;2023-07-02T10:38:19;19.40;90.90
45849;DHT22;31567;54.600;9.842;2023-07-02T10:42:09;19.60;90.40
45849;DHT22;31567;54.600;9.842;2023-07-02T10:45:49;19.70;90.20
45849;DHT22;31567;54.600;9.842;2023-07-02T10:49:32;19.90;90.10
45849;DHT22;31567;54.600;9.842;2023-07-02T10:53:19;20.10;90.00
45849;DHT22;31567;54.600;9.842;2023-07-02T10:56:59;20.10;89.20
45849;DHT22;31567;54.600;9.842;2023-07-02T11:00:49;19.80;88.30
45849;DHT22;31567;54.600;9.842;2023-07-02T11:04:30;19.80;88.90
45849;DHT22;31567;54.600;9.842;2023-07-02T11:08:10;19.80;86.40
45849;DHT22;31567;54.600;9.842;2023-07-02T11:11:54;19.80;86.10
45849;DHT22;31567;54.600;9.842;2023-07-02T11:15:36;19.90;87.30
45849;DHT22;31567;54.600;9.842;2023-07-02T11:19:18;19.70;87.30
45849;DHT22;31567;54.600;9.842;2023-07-02T11:22:58;20.00;88.90
45849;DHT22;31567;54.600;9.842;2023-07-02T11:26:41;20.20;88.90
45849;DHT22;31567;54.600;9.842;2023-07-02T11:30:22;20.00;84.10
45849;DHT22;31567;54.600;9.842;2023-07-02T11:34:14;19.60;86.90
45849;DHT22;31567;54.600;9.842;2023-07-02T11:37:54;19.30;87.60
45849;DHT22;31567;54.600;9.842;2023-07-02T11:41:42;19.20;89.30
45849;DHT22;31567;54.600;9.842;2023-07-02T11:45:22;18.90;90.60
45849;DHT22;31567;54.600;9.842;2023-07-02T11:49:03;19.10;91.10
45849;DHT22;31567;54.600;9.842;2023-07-02T11:52:47;19.40;90.50
45849;DHT22;31567;54.600;9.842;2023-07-02T11:56:27;19.50;85.90
45849;DHT22;31567;54.600;9.842;2023-07-02T12:00:07;19.40;86.10
45849;DHT22;31567;54.600;9.842;2023-07-02T12:03:46;19.20;86.70
45849;DHT22;31567;54.600;9.842;2023-07-02T12:07:26;19.30;89.70
45849;DHT22;31567;54.600;9.842;2023-07-02T12:11:07;19.50;89.10
45849;DHT22;31567;54.600;9.842;2023-07-02T12:14:47;19.70;88.20
45849;DHT22;31567;54.600;9.842;2023-07-02T12:18:26;19.60;88.50
45849;DHT22;31567;54.600;9.842;2023-07-02T12:22:06;19.50;86.00
45849;DHT22;31567;54.600;9.842;2023-07-02T12:25:46;19.30;85.20
45849;DHT22;31567;54.600;9.842;2023-07-02T12:29:26;19.40;84.50
45849;DHT22;31567;54.600;9.842;2023-07-02T12:33:05;19.80;84.10
45849;DHT22;31567;54.600;9.842;2023-07-02T12:36:45;20.00;83.40
45849;DHT22;31567;54.600;9.842;2023-07-02T12:40:24;20.10;83.90
45849;DHT22;31567;54.600;9.842;2023-07-02T12:44:04;19.90;85.60
45849;DHT22;31567;54.600;9.842;2023-07-02T12:47:43;19.70;88.00
45849;DHT22;31567;54.600;9.842;2023-07-02T12:51:23;19.60;89.50
45849;DHT22;31567;54.600;9.842;2023-07-02T12:55:03;19.90;90.00
45849;DHT22;31567;54.600;9.842;2023-07-02T12:58:42;19.90;86.70
45849;DHT22;31567;54.600;9.842;2023-07-02T13:02:25;19.80;89.00
45849;DHT22;31567;54.600;9.842;2023-07-02T13:06:05;19.80;89.60
45849;DHT22;31567;54.600;9.842;2023-07-02T13:09:44;19.80;90.40
45849;DHT22;31567;54.600;9.842;2023-07-02T13:13:24;19.90;90.50
45849;DHT22;31567;54.600;9.842;2023-07-02T13:17:03;19.90;90.10
45849;DHT22;31567;54.600;9.842;2023-07-02T13:20:44;19.80;90.70
45849;DHT22;31567;54.600;9.842;2023-07-02T13:24:24;20.00;90.90
45849;DHT22;31567;54.600;9.842;2023-07-02T13:28:03;19.90;90.80
45849;DHT22;31567;54.600;9.842;2023-07-02T13:31:43;19.90;90.90
45849;DHT22;31567;54.600;9.842;2023-07-02T13:35:23;19.70;90.90
45849;DHT22;31567;54.600;9.842;2023-07-02T13:39:02;19.50;89.20
45849;DHT22;31567;54.600;9.842;2023-07-02T13:42:42;19.30;88.40
45849;DHT22;31567;54.600;9.842;2023-07-02T13:46:22;19.40;90.00
45849;DHT22;31567;54.600;9.842;2023-07-02T13:50:02;19.60;90.40
45849;DHT22;31567;54.600;9.842;2023-07-02T13:53:42;19.70;90.40
45849;DHT22;31567;54.600;9.842;2023-07-02T13:57:22;19.90;90.80
45849;DHT22;31567;54.600;9.842;2023-07-02T14:01:01;19.80;91.60
45849;DHT22;31567;54.600;9.842;2023-07-02T14:04:41;19.70;92.20
45849;DHT22;31567;54.600;9.842;2023-07-02T14:08:20;19.70;90.80
45849;DHT22;31567;54.600;9.842;2023-07-02T14:12:00;19.40;90.40
45849;DHT22;31567;54.600;9.842;2023-07-02T14:15:39;19.40;90.60
45849;DHT22;31567;54.600;9.842;2023-07-02T14:19:19;19.40;90.50
45849;DHT22;31567;54.600;9.842;2023-07-02T14:22:58;19.20;90.60
45849;DHT22;31567;54.600;9.842;2023-07-02T14:26:38;19.10;88.90
45849;DHT22;31567;54.600;9.842;2023-07-02T14:30:18;18.80;89.70
45849;DHT22;31567;54.600;9.842;2023-07-02T14:33:57;18.50;90.90
45849;DHT22;31567;54.600;9.842;2023-07-02T14:37:37;18.40;92.00
45849;DHT22;31567;54.600;9.842;2023-07-02T14:41:16;18.10;92.40
45849;DHT22;31567;54.600;9.842;2023-07-02T14:44:56;18.40;92.60
45849;DHT22;31567;54.600;9.842;2023-07-02T14:48:35;18.50;91.80
45849;DHT22;31567;54.600;9.842;2023-07-02T14:52:15;18.40;90.60
45849;DHT22;31567;54.600;9.842;2023-07-02T14:55:57;18.50;91.10
45849;DHT22;31567;54.600;9.842;2023-07-02T14:59:36;18.60;91.50
45849;DHT22;31567;54.600;9.842;2023-07-02T15:03:17;18.50;91.70
45849;DHT22;31567;54.600;9.842;2023-07-02T15:06:56;18.50;91.80
45849;DHT22;31567;54.600;9.842;2023-07-02T15:10:36;18.20;92.30
45849;DHT22;31567;54.600;9.842;2023-07-02T15:14:19;18.10;92.60
45849;DHT22;31567;54.600;9.842;2023-07-02T15:17:58;17.80;93.30
45849;DHT22;31567;54.600;9.842;2023-07-02T15:21:38;18.00;94.20
45849;DHT22;31567;54.600;9.842;2023-07-02T15:25:18;18.20;93.70
45849;DHT22;31567;54.600;9.842;2023-07-02T15:28:58;18.40;91.70
45849;DHT22;31567;54.600;9.842;2023-07-02T15:32:37;18.50;90.50
45849;DHT22;31567;54.600;9.842;2023-07-02T15:36:18;18.80;89.40
45849;DHT22;31567;54.600;9.842;2023-07-02T15:39:58;18.90;87.60
45849;DHT22;31567;54.600;9.842;2023-07-02T15:43:38;19.00;86.90
45849;DHT22;31567;54.600;9.842;2023-07-02T15:47:18;19.10;86.40
45849;DHT22;31567;54.600;9.842;2023-07-02T15:50:57;18.90;86.70
45849;DHT22;31567;54.600;9.842;2023-07-02T15:54:37;19.00;88.30
45849;DHT22;31567;54.600;9.842;2023-07-02T15:58:16;19.10;88.00
45849;DHT22;31567;54.600;9.842;2023-07-02T16:01:56;19.00;86.80
45849;DHT22;31567;54.600;9.842;2023-07-02T16:05:37;19.00;86.70
45849;DHT22;31567;54.600;9.842;2023-07-02T16:09:20;19.00;86.80
45849;DHT22;31567;54.600;9.842;2023-07-02T16:13:00;19.00;87.20
45849;DHT22;31567;54.600;9.842;2023-07-02T16:16:41;19.00;87.10
45849;DHT22;31567;54.600;9.842;2023-07-02T16:20:20;18.90;86.40
45849;DHT22;31567;54.600;9.842;2023-07-02T16:24:00;19.00;86.70
45849;DHT22;31567;54.600;9.842;2023-07-02T16:27:40;18.80;87.40
45849;DHT22;31567;54.600;9.842;2023-07-02T16:31:20;18.80;87.80
45849;DHT22;31567;54.600;9.842;2023-07-02T16:34:59;18.90;88.60
45849;DHT22;31567;54.600;9.842;2023-07-02T16:38:39;18.90;85.90
45849;DHT22;31567;54.600;9.842;2023-07-02T16:42:19;18.90;86.20
45849;DHT22;31567;54.600;9.842;2023-07-02T16:45:58;18.80;86.00
45849;DHT22;31567;54.600;9.842;2023-07-02T16:49:38;18.90;85.50
45849;DHT22;31567;54.600;9.842;2023-07-02T16:53:17;18.90;85.30
45849;DHT22;31567;54.600;9.842;2023-07-02T16:56:58;18.90;85.10
45849;DHT22;31567;54.600;9.842;2023-07-02T17:00:38;19.20;84.40
45849;DHT22;31567;54.600;9.842;2023-07-02T17:04:19;19.30;84.50
45849;DHT22;31567;54.600;9.842;2023-07-02T17:07:58;19.00;84.10
45849;DHT22;31567;54.600;9.842;2023-07-02T17:11:38;19.30;85.50
45849;DHT22;31567;54.600;9.842;2023-07-02T17:15:17;19.40;84.20
45849;DHT22;31567;54.600;9.842;2023-07-02T17:18:57;19.60;84.50
45849;DHT22;31567;54.600;9.842;2023-07-02T17:22:36;19.50;84.40
45849;DHT22;31567;54.600;9.842;2023-07-02T17:26:16;19.30;86.50
45849;DHT22;31567;54.600;9.842;2023-07-02T17:30:02;19.00;87.70
45849;DHT22;31567;54.600;9.842;2023-07-02T17:33:42;18.80;88.90
45849;DHT22;31567;54.600;9.842;2023-07-02T17:37:22;18.60;90.00
45849;DHT22;31567;54.600;9.842;2023-07-02T17:41:01;18.50;90.30
45849;DHT22;31567;54.600;9.842;2023-07-02T17:44:43;18.50;90.60
45849;DHT22;31567;54.600;9.842;2023-07-02T17:48:23;18.40;90.30
45849;DHT22;31567;54.600;9.842;2023-07-02T17:52:06;18.50;90.00
45849;DHT22;31567;54.600;9.842;2023-07-02T17:55:50;18.40;90.00
45849;DHT22;31567;54.600;9.842;2023-07-02T17:59:29;18.60;90.00
45849;DHT22;31567;54.600;9.842;2023-07-02T18:03:10;18.90;89.40
45849;DHT22;31567;54.600;9.842;2023-07-02T18:06:49;19.00;88.90
45849;DHT22;31567;54.600;9.842;2023-07-02T18:10:36;18.80;89.00
45849;DHT22;31567;54.600;9.842;2023-07-02T18:14:16;18.60;88.60
45849;DHT22;31567;54.600;9.842;2023-07-02T18:17:55;18.60;89.00
45849;DHT22;31567;54.600;9.842;2023-07-02T18:21:35;18.60;89.10
45849;DHT22;31567;54.600;9.842;2023-07-02T18:25:15;18.40;89.10
45849;DHT22;31567;54.600;9.842;2023-07-02T18:28:54;18.10;89.70
45849;DHT22;31567;54.600;9.842;2023-07-02T18:32:34;17.90;90.20
45849;DHT22;31567;54.600;9.842;2023-07-02T18:36:16;17.80;90.60
45849;DHT22;31567;54.600;9.842;2023-07-02T18:39:55;17.60;90.90
45849;DHT22;31567;54.600;9.842;2023-07-02T18:43:36;17.60;91.30
45849;DHT22;31567;54.600;9.842;2023-07-02T18:47:16;17.50;91.50
45849;DHT22;31567;54.600;9.842;2023-07-02T18:50:55;17.50;92.10
45849;DHT22;31567;54.600;9.842;2023-07-02T18:54:36;17.60;92.40
45849;DHT22;31567;54.600;9.842;2023-07-02T18:58:15;17.80;91.80
45849;DHT22;31567;54.600;9.842;2023-07-02T19:01:55;17.90;91.50
45849;DHT22;31567;54.600;9.842;2023-07-02T19:05:34;18.10;91.30
45849;DHT22;31567;54.600;9.842;2023-07-02T19:09:14;18.00;91.60
45849;DHT22;31567;54.600;9.842;2023-07-02T19:12:54;17.70;91.60
45849;DHT22;31567;54.600;9.842;2023-07-02T19:16:33;17.60;91.90
45849;DHT22;31567;54.600;9.842;2023-07-02T19:20:14;17.50;92.30
45849;DHT22;31567;54.600;9.842;2023-07-02T19:23:55;17.40;92.60
45849;DHT22;31567;54.600;9.842;2023-07-02T19:27:37;17.40;92.90
45849;DHT22;31567;54.600;9.842;2023-07-02T19:31:17;17.30;93.40
45849;DHT22;31567;54.600;9.842;2023-07-02T19:34:57;17.10;93.90
45849;DHT22;31567;54.600;9.842;2023-07-02T19:38:37;17.10;94.30
45849;DHT22;31567;54.600;9.842;2023-07-02T19:42:16;17.00;94.70
45849;DHT22;31567;54.600;9.842;2023-07-02T19:46:00;16.90;95.20
45849;DHT22;31567;54.600;9.842;2023-07-02T19:49:40;16.70;96.00
45849;DHT22;31567;54.600;9.842;2023-07-02T19:53:23;16.40;96.40
45849;DHT22;31567;54.600;9.842;2023-07-02T19:57:03;16.10;97.10
45849;DHT22;31567;54.600;9.842;2023-07-02T20:00:43;15.90;97.50
45849;DHT22;31567;54.600;9.842;2023-07-02T20:04:22;15.70;98.00
45849;DHT22;31567;54.600;9.842;2023-07-02T20:08:02;15.50;98.30
45849;DHT22;31567;54.600;9.842;2023-07-02T20:11:41;15.30;98.90
45849;DHT22;31567;54.600;9.842;2023-07-02T20:15:21;15.20;99.30
45849;DHT22;31567;54.600;9.842;2023-07-02T20:19:01;15.10;99.60
45849;DHT22;31567;54.600;9.842;2023-07-02T20:22:42;15.00;99.80
45849;DHT22;31567;54.600;9.842;2023-07-02T20:26:23;15.00;99.90
45849;DHT22;31567;54.600;9.842;2023-07-02T20:30:03;15.00;99.90
45849;DHT22;31567;54.600;9.842;2023-07-02T20:33:42;14.90;99.90
45849;DHT22;31567;54.600;9.842;2023-07-02T20:37:22;14.90;99.90
45849;DHT22;31567;54.600;9.842;2023-07-02T20:41:02;14.90;99.90
45849;DHT22;31567;54.600;9.842;2023-07-02T20:44:47;14.90;99.90
45849;DHT22;31567;54.600;9.842;2023-07-02T20:48:29;14.90;99.90
45849;DHT22;31567;54.600;9.842;2023-07-02T20:52:09;14.90;99.90
45849;DHT22;31567;54.600;9.842;2023-07-02T20:55:55;15.00;99.90
45849;DHT22;31567;54.600;9.842;2023-07-02T20:59:35;15.00;99.90
45849;DHT22;31567;54.600;9.842;2023-07-02T21:03:14;14.90;99.90
45849;DHT22;31567;54.600;9.842;2023-07-02T21:06:54;15.00;99.90
45849;DHT22;31567;54.600;9.842;2023-07-02T21:10:33;15.00;99.90
45849;DHT22;31567;54.600;9.842;2023-07-02T21:14:13;15.00;99.90
45849;DHT22;31567;54.600;9.842;2023-07-02T21:17:52;15.00;99.90
45849;DHT22;31567;54.600;9.842;2023-07-02T21:21:32;14.90;99.90
45849;DHT22;31567;54.600;9.842;2023-07-02T21:25:13;14.90;99.90
45849;DHT22;31567;54.600;9.842;2023-07-02T21:28:53;14.90;99.90
45849;DHT22;31567;54.600;9.842;2023-07-02T21:32:32;14.90;99.90
45849;DHT22;31567;54.600;9.842;2023-07-02T21:36:12;14.90;99.90
45849;DHT22;31567;54.600;9.842;2023-07-02T21:39:54;14.80;99.90
45849;DHT22;31567;54.600;9.842;2023-07-02T21:43:34;14.80;99.90
45849;DHT22;31567;54.600;9.842;2023-07-02T21:47:13;14.80;99.90
45849;DHT22;31567;54.600;9.842;2023-07-02T21:50:53;14.80;99.90
45849;DHT22;31567;54.600;9.842;2023-07-02T21:54:32;14.80;99.90
45849;DHT22;31567;54.600;9.842;2023-07-02T21:58:12;14.70;99.90
45849;DHT22;31567;54.600;9.842;2023-07-02T22:01:51;14.80;99.90
45849;DHT22;31567;54.600;9.842;2023-07-02T22:05:31;14.80;99.90
45849;DHT22;31567;54.600;9.842;2023-07-02T22:09:10;14.70;99.90
45849;DHT22;31567;54.600;9.842;2023-07-02T22:12:50;14.70;99.30
45849;DHT22;31567;54.600;9.842;2023-07-02T22:16:29;14.70;99.00
45849;DHT22;31567;54.600;9.842;2023-07-02T22:20:09;14.60;98.80
45849;DHT22;31567;54.600;9.842;2023-07-02T22:23:52;14.60;98.70
45849;DHT22;31567;54.600;9.842;2023-07-02T22:27:32;14.60;98.60
45849;DHT22;31567;54.600;9.842;2023-07-02T22:31:12;14.60;98.60
45849;DHT22;31567;54.600;9.842;2023-07-02T22:34:51;14.60;98.60
45849;DHT22;31567;54.600;9.842;2023-07-02T22:38:31;14.60;98.60
45849;DHT22;31567;54.600;9.842;2023-07-02T22:42:10;14.70;98.60
45849;DHT22;31567;54.600;9.842;2023-07-02T22:45:50;14.70;98.50
45849;DHT22;31567;54.600;9.842;2023-07-02T22:49:30;14.60;98.30
45849;DHT22;31567;54.600;9.842;2023-07-02T22:53:12;14.70;98.30
45849;DHT22;31567;54.600;9.842;2023-07-02T22:56:53;14.70;98.10
45849;DHT22;31567;54.600;9.842;2023-07-02T23:00:33;14.80;97.90
45849;DHT22;31567;54.600;9.842;2023-07-02T23:04:13;14.80;97.80
45849;DHT22;31567;54.600;9.842;2023-07-02T23:07:52;14.80;97.70
45849;DHT22;31567;54.600;9.842;2023-07-02T23:11:32;14.80;97.70